createdAt,value
2018-03-28T00:00:03.280Z,100653.04
2018-03-28T00:02:31.664Z,100648.80
2018-03-28T00:05:00.032Z,100648.97
2018-03-28T00:07:28.499Z,100650.47
2018-03-28T00:09:57.131Z,100654.62
2018-03-28T00:12:25.616Z,100643.25
2018-03-28T00:14:54.834Z,100639.91
2018-03-28T00:17:23.204Z,100641.77
2018-03-28T00:19:51.685Z,100639.69
2018-03-28T00:22:20.228Z,100633.87
2018-03-28T00:24:48.692Z,100625.19
2018-03-28T00:27:17.806Z,100622.02
2018-03-28T00:29:46.161Z,100612.79
2018-03-28T00:32:14.941Z,100604.86
2018-03-28T00:37:31.577Z,100600.05
2018-03-28T00:39:59.914Z,100594.33
2018-03-28T00:42:28.232Z,100589.29
2018-03-28T00:44:56.593Z,100574.52
2018-03-28T00:47:25.809Z,100574.98
2018-03-28T00:49:54.901Z,100568.64
2018-03-28T00:52:23.592Z,100572.77
2018-03-28T00:54:52.277Z,100580.09
2018-03-28T00:57:20.734Z,100575.28
2018-03-28T00:59:49.439Z,100573.91
2018-03-28T01:02:17.757Z,100569.08
2018-03-28T01:04:46.061Z,100569.94
2018-03-28T01:07:14.396Z,100573.03
2018-03-28T01:09:42.732Z,100571.63
2018-03-28T01:12:11.271Z,100574.45
2018-03-28T01:14:39.918Z,100567.24
2018-03-28T01:17:08.242Z,100569.08
2018-03-28T01:19:36.570Z,100554.27
2018-03-28T01:22:04.983Z,100555.33
2018-03-28T01:24:33.442Z,100554.42
2018-03-28T01:27:02.113Z,100553.09
2018-03-28T01:29:30.625Z,100556.48
2018-03-28T01:31:59.088Z,100551.79
2018-03-28T01:34:27.415Z,100540.22
2018-03-28T01:36:56.225Z,100545.34
2018-03-28T01:39:24.554Z,100534.63
2018-03-28T01:41:52.874Z,100538.84
2018-03-28T01:44:21.230Z,100534.80
2018-03-28T01:46:49.561Z,100544.59
2018-03-28T01:49:17.891Z,100545.05
2018-03-28T01:51:46.281Z,100554.31
2018-03-28T01:54:14.594Z,100542.34
2018-03-28T01:56:43.274Z,100541.02
2018-03-28T01:59:12.159Z,100546.78
2018-03-28T02:01:40.600Z,100541.47
2018-03-28T02:04:08.915Z,100546.84
2018-03-28T02:06:37.237Z,100542.19
2018-03-28T02:09:06.405Z,100533.56
2018-03-28T02:11:34.786Z,100535.30
2018-03-28T02:16:38.498Z,100535.45
2018-03-28T02:19:07.108Z,100534.92
2018-03-28T02:21:36.182Z,100540.77
2018-03-28T02:24:04.513Z,100542.17
2018-03-28T02:26:32.906Z,100539.63
2018-03-28T02:29:01.230Z,100536.38
2018-03-28T02:31:30.429Z,100535.37
2018-03-28T02:33:59.173Z,100543.04
2018-03-28T02:36:27.516Z,100548.44
2018-03-28T02:38:55.865Z,100551.04
2018-03-28T02:41:25.265Z,100544.91
2018-03-28T02:43:53.888Z,100544.73
2018-03-28T02:46:22.238Z,100542.42
2018-03-28T02:48:51.337Z,100551.27
2018-03-28T02:51:20.443Z,100542.34
2018-03-28T02:53:48.784Z,100540.88
2018-03-28T02:56:17.142Z,100544.50
2018-03-28T02:58:45.778Z,100541.65
2018-03-28T03:01:14.132Z,100550.98
2018-03-28T03:03:42.820Z,100547.33
2018-03-28T03:06:11.141Z,100543.95
2018-03-28T03:08:39.449Z,100538.84
2018-03-28T03:11:07.773Z,100542.39
2018-03-28T03:13:36.424Z,100533.48
2018-03-28T03:16:04.732Z,100530.73
2018-03-28T03:18:33.055Z,100528.81
2018-03-28T03:21:01.382Z,100526.67
2018-03-28T03:23:29.705Z,100522.94
2018-03-28T03:25:58.252Z,100523.74
2018-03-28T03:28:27.322Z,100520.47
2018-03-28T03:30:55.834Z,100515.02
2018-03-28T03:33:24.728Z,100512.73
2018-03-28T03:35:53.401Z,100508.98
2018-03-28T03:38:21.715Z,100514.17
2018-03-28T03:40:50.054Z,100521.73
2018-03-28T03:43:19.131Z,100520.88
2018-03-28T03:45:47.794Z,100531.28
2018-03-28T03:48:16.628Z,100527.00
2018-03-28T03:50:50.242Z,100528.03
2018-03-28T03:53:19.138Z,100526.77
2018-03-28T03:55:48.250Z,100522.30
2018-03-28T03:58:16.670Z,100525.48
2018-03-28T04:00:44.993Z,100523.50
2018-03-28T04:03:13.477Z,100515.59
2018-03-28T04:05:42.365Z,100511.48
2018-03-28T04:08:11.670Z,100508.84
2018-03-28T04:10:40.138Z,100505.45
2018-03-28T04:13:08.446Z,100500.70
2018-03-28T04:15:36.937Z,100503.41
2018-03-28T04:18:05.232Z,100500.92
2018-03-28T04:20:33.552Z,100493.27
2018-03-28T04:23:02.604Z,100495.66
2018-03-28T04:25:31.096Z,100492.44
2018-03-28T04:27:59.542Z,100497.32
2018-03-28T04:30:28.582Z,100495.98
2018-03-28T04:32:57.097Z,100489.75
2018-03-28T04:35:25.432Z,100498.33
2018-03-28T04:37:53.752Z,100500.42
2018-03-28T04:40:22.078Z,100500.91
2018-03-28T04:42:50.412Z,100500.29
2018-03-28T04:45:18.965Z,100500.55
2018-03-28T04:47:47.295Z,100501.11
2018-03-28T04:50:15.620Z,100500.44
2018-03-28T04:52:44.924Z,100494.56
2018-03-28T04:55:13.244Z,100489.84
2018-03-28T04:57:41.584Z,100492.09
2018-03-28T05:00:09.922Z,100487.14
2018-03-28T05:02:38.246Z,100491.03
2018-03-28T05:05:06.548Z,100484.73
2018-03-28T05:07:34.893Z,100488.27
2018-03-28T05:10:03.312Z,100488.66
2018-03-28T05:12:31.629Z,100489.53
2018-03-28T05:15:00.125Z,100487.92
2018-03-28T05:17:28.439Z,100483.26
2018-03-28T05:19:57.674Z,100491.95
2018-03-28T05:22:26.181Z,100496.76
2018-03-28T05:24:54.765Z,100496.05
2018-03-28T05:27:23.102Z,100492.17
2018-03-28T05:29:51.543Z,100493.72
2018-03-28T05:32:20.689Z,100486.37
2018-03-28T05:34:49.140Z,100494.61
2018-03-28T05:37:18.326Z,100486.53
2018-03-28T05:39:46.718Z,100489.56
2018-03-28T05:42:15.213Z,100495.09
2018-03-28T05:44:43.681Z,100498.95
2018-03-28T05:47:12.758Z,100491.62
2018-03-28T05:49:41.270Z,100497.44
2018-03-28T05:52:09.582Z,100495.59
2018-03-28T05:54:37.912Z,100498.42
2018-03-28T05:57:06.341Z,100491.59
2018-03-28T05:59:35.266Z,100489.45
2018-03-28T06:02:03.629Z,100490.34
2018-03-28T06:04:31.982Z,100483.27
2018-03-28T06:07:00.404Z,100490.38
2018-03-28T06:09:28.733Z,100484.94
2018-03-28T06:11:57.180Z,100492.94
2018-03-28T06:14:26.329Z,100482.33
2018-03-28T06:16:54.650Z,100493.26
2018-03-28T06:19:22.967Z,100481.94
2018-03-28T06:21:51.594Z,100481.77
2018-03-28T06:24:20.022Z,100483.52
2018-03-28T06:26:48.348Z,100487.83
2018-03-28T06:29:16.690Z,100486.80
2018-03-28T06:31:45.314Z,100484.78
2018-03-28T06:34:13.927Z,100482.78
2018-03-28T06:36:43.066Z,100475.71
2018-03-28T06:39:11.520Z,100484.12
2018-03-28T06:41:40.589Z,100477.13
2018-03-28T06:44:10.797Z,100476.25
2018-03-28T06:46:39.245Z,100483.43
2018-03-28T06:49:07.696Z,100477.27
2018-03-28T06:51:36.854Z,100475.89
2018-03-28T06:54:05.180Z,100470.35
2018-03-28T06:56:34.417Z,100480.83
2018-03-28T06:59:02.754Z,100484.14
2018-03-28T07:01:31.836Z,100478.33
2018-03-28T07:04:00.913Z,100487.52
2018-03-28T07:06:29.531Z,100478.33
2018-03-28T07:08:58.616Z,100481.52
2018-03-28T07:11:27.722Z,100485.04
2018-03-28T07:13:56.405Z,100479.77
2018-03-28T07:16:24.901Z,100487.75
2018-03-28T07:18:53.377Z,100486.64
2018-03-28T07:21:21.714Z,100482.85
2018-03-28T07:23:50.133Z,100474.87
2018-03-28T07:26:19.211Z,100481.89
2018-03-28T07:28:47.916Z,100487.47
2018-03-28T07:31:16.441Z,100483.73
2018-03-28T07:33:44.913Z,100480.17
2018-03-28T07:36:13.514Z,100479.61
2018-03-28T07:38:41.865Z,100481.31
2018-03-28T07:41:10.345Z,100481.84
2018-03-28T07:43:38.773Z,100475.53
2018-03-28T07:46:07.085Z,100480.55
2018-03-28T07:48:36.177Z,100480.19
2018-03-28T07:51:04.869Z,100483.05
2018-03-28T07:53:33.200Z,100479.53
2018-03-28T07:56:01.663Z,100473.41
2018-03-28T07:58:30.084Z,100482.56
2018-03-28T08:00:58.629Z,100467.89
2018-03-28T08:03:27.083Z,100468.78
2018-03-28T08:05:55.445Z,100478.48
2018-03-28T08:08:24.826Z,100469.42
2018-03-28T08:10:53.134Z,100471.86
2018-03-28T08:13:21.813Z,100465.33
2018-03-28T08:15:50.482Z,100466.44
2018-03-28T08:18:19.184Z,100467.50
2018-03-28T08:20:47.702Z,100464.53
2018-03-28T08:23:16.009Z,100467.02
2018-03-28T08:25:44.421Z,100463.20
2018-03-28T08:28:12.769Z,100463.70
2018-03-28T08:30:41.585Z,100452.55
2018-03-28T08:33:10.278Z,100448.19
2018-03-28T08:35:39.150Z,100451.99
2018-03-28T08:38:07.664Z,100453.27
2018-03-28T08:40:36.742Z,100450.30
2018-03-28T08:43:05.418Z,100448.85
2018-03-28T08:45:33.939Z,100455.15
2018-03-28T08:48:02.238Z,100456.14
2018-03-28T08:50:31.090Z,100451.13
2018-03-28T08:52:59.682Z,100445.24
2018-03-28T08:55:28.892Z,100443.30
2018-03-28T08:57:57.552Z,100450.36
2018-03-28T09:00:26.104Z,100449.31
2018-03-28T09:02:55.000Z,100445.35
2018-03-28T09:05:23.359Z,100438.08
2018-03-28T09:07:51.692Z,100438.08
2018-03-28T09:10:20.785Z,100438.12
2018-03-28T09:12:49.251Z,100438.20
2018-03-28T09:15:17.593Z,100432.27
2018-03-28T09:17:46.079Z,100427.80
2018-03-28T09:20:14.698Z,100428.11
2018-03-28T09:22:43.007Z,100426.17
2018-03-28T09:25:11.473Z,100423.42
2018-03-28T09:27:39.989Z,100419.55
2018-03-28T09:30:08.318Z,100425.00
2018-03-28T09:32:36.742Z,100411.16
2018-03-28T09:35:05.089Z,100420.03
2018-03-28T09:37:34.340Z,100417.98
2018-03-28T09:40:02.758Z,100416.01
2018-03-28T09:42:32.068Z,100416.70
2018-03-28T09:45:01.164Z,100413.87
2018-03-28T09:47:29.689Z,100421.38
2018-03-28T09:49:58.159Z,100427.17
2018-03-28T09:52:26.628Z,100419.41
2018-03-28T09:54:55.115Z,100416.80
2018-03-28T09:57:23.548Z,100414.88
2018-03-28T09:59:52.792Z,100400.73
2018-03-28T10:02:26.865Z,100409.23
2018-03-28T10:05:05.294Z,100407.95
2018-03-28T10:07:34.693Z,100410.00
2018-03-28T10:10:03.220Z,100420.88
2018-03-28T10:12:31.547Z,100416.71
2018-03-28T10:15:00.183Z,100418.69
2018-03-28T10:17:28.522Z,100419.47
2018-03-28T10:19:56.868Z,100425.14
2018-03-28T10:22:25.594Z,100418.05
2018-03-28T10:24:54.108Z,100415.17
2018-03-28T10:27:22.504Z,100422.50
2018-03-28T10:29:50.885Z,100432.76
2018-03-28T10:32:19.334Z,100428.09
2018-03-28T10:34:48.464Z,100430.55
2018-03-28T10:37:16.942Z,100428.66
2018-03-28T10:39:45.355Z,100433.75
2018-03-28T10:42:13.688Z,100425.75
2018-03-28T10:44:42.592Z,100425.54
2018-03-28T10:47:11.006Z,100411.83
2018-03-28T10:49:39.532Z,100410.98
2018-03-28T10:52:08.002Z,100403.88
2018-03-28T10:54:36.594Z,100398.86
2018-03-28T10:57:05.999Z,100395.58
2018-03-28T10:59:35.279Z,100391.44
2018-03-28T11:02:03.981Z,100386.46
2018-03-28T11:04:32.478Z,100386.60
2018-03-28T11:07:01.765Z,100374.87
2018-03-28T11:09:30.098Z,100380.93
2018-03-28T11:11:58.428Z,100381.94
2018-03-28T11:14:26.968Z,100376.07
2018-03-28T11:16:55.274Z,100373.88
2018-03-28T11:19:23.780Z,100373.67
2018-03-28T11:21:52.544Z,100363.63
2018-03-28T11:24:21.714Z,100361.33
2018-03-28T11:26:50.060Z,100364.51
2018-03-28T11:29:18.904Z,100366.67
2018-03-28T11:31:47.243Z,100361.09
2018-03-28T11:34:15.993Z,100364.12
2018-03-28T11:36:45.498Z,100360.77
2018-03-28T11:39:14.284Z,100350.95
2018-03-28T11:41:42.757Z,100356.07
2018-03-28T11:44:12.090Z,100362.78
2018-03-28T11:46:40.588Z,100354.63
2018-03-28T11:49:08.932Z,100349.07
2018-03-28T11:51:37.900Z,100344.89
2018-03-28T11:54:06.237Z,100340.91
2018-03-28T11:56:34.586Z,100350.84
2018-03-28T11:59:03.138Z,100345.72
2018-03-28T12:01:31.460Z,100345.02
2018-03-28T12:03:59.969Z,100331.95
2018-03-28T12:06:28.326Z,100346.11
2018-03-28T12:08:56.980Z,100346.60
2018-03-28T12:11:26.159Z,100340.77
2018-03-28T12:13:54.793Z,100341.05
2018-03-28T12:18:57.772Z,100330.59
2018-03-28T12:21:26.252Z,100325.19
2018-03-28T12:23:54.617Z,100321.27
2018-03-28T12:26:24.011Z,100317.38
2018-03-28T12:28:52.535Z,100332.70
2018-03-28T12:31:21.003Z,100316.66
2018-03-28T12:33:50.404Z,100323.47
2018-03-28T12:36:18.779Z,100317.12
2018-03-28T12:38:47.150Z,100332.54
2018-03-28T12:41:16.256Z,100316.83
2018-03-28T12:43:45.387Z,100301.98
2018-03-28T12:46:13.916Z,100301.56
2018-03-28T12:48:42.754Z,100295.55
2018-03-28T12:51:11.296Z,100286.16
2018-03-28T12:53:39.800Z,100298.29
2018-03-28T12:56:08.683Z,100283.81
2018-03-28T12:58:37.005Z,100282.98
2018-03-28T13:01:05.437Z,100293.94
2018-03-28T13:03:33.806Z,100296.95
2018-03-28T13:06:02.235Z,100291.32
2018-03-28T13:08:30.871Z,100287.00
2018-03-28T13:10:59.787Z,100278.75
2018-03-28T13:13:28.122Z,100279.03
2018-03-28T13:15:56.572Z,100266.73
2018-03-28T13:18:25.418Z,100281.78
2018-03-28T13:20:53.741Z,100276.13
2018-03-28T13:23:22.044Z,100267.92
2018-03-28T13:25:50.428Z,100263.50
2018-03-28T13:28:18.775Z,100264.41
2018-03-28T13:30:47.122Z,100259.05
2018-03-28T13:33:16.274Z,100259.68
2018-03-28T13:35:44.612Z,100273.66
2018-03-28T13:38:13.081Z,100258.03
2018-03-28T13:40:41.949Z,100248.16
2018-03-28T13:43:10.642Z,100237.86
2018-03-28T13:45:38.949Z,100240.52
2018-03-28T13:48:07.629Z,100240.47
2018-03-28T13:50:35.964Z,100238.56
2018-03-28T13:53:04.280Z,100231.86
2018-03-28T13:55:33.407Z,100230.94
2018-03-28T13:58:01.914Z,100242.02
2018-03-28T14:00:30.257Z,100234.61
2018-03-28T14:02:59.129Z,100236.52
2018-03-28T14:05:27.476Z,100232.50
2018-03-28T14:07:56.119Z,100226.13
2018-03-28T14:10:24.473Z,100225.07
2018-03-28T14:12:53.689Z,100221.41
2018-03-28T14:15:22.096Z,100207.28
2018-03-28T14:17:50.429Z,100203.19
2018-03-28T14:20:18.735Z,100196.91
2018-03-28T14:22:47.202Z,100189.08
2018-03-28T14:25:15.838Z,100179.45
2018-03-28T14:27:44.182Z,100181.36
2018-03-28T14:30:12.522Z,100176.58
2018-03-28T14:32:40.935Z,100173.05
2018-03-28T14:35:09.276Z,100161.84
2018-03-28T14:37:38.358Z,100149.60
2018-03-28T14:40:06.704Z,100153.19
2018-03-28T14:42:35.222Z,100151.99
2018-03-28T14:45:03.536Z,100144.18
2018-03-28T14:47:32.399Z,100140.30
2018-03-28T14:50:00.703Z,100133.03
2018-03-28T14:52:28.994Z,100132.46
2018-03-28T14:54:57.845Z,100133.36
2018-03-28T14:57:26.182Z,100117.09
2018-03-28T14:59:54.662Z,100123.40
2018-03-28T15:02:24.120Z,100108.44
2018-03-28T15:04:52.456Z,100108.97
2018-03-28T15:07:20.791Z,100100.28
2018-03-28T15:09:50.273Z,100095.00
2018-03-28T15:12:18.838Z,100088.89
2018-03-28T15:14:47.156Z,100082.02
2018-03-28T15:17:15.670Z,100082.34
2018-03-28T15:19:43.985Z,100068.73
2018-03-28T15:22:12.298Z,100052.67
2018-03-28T15:24:40.864Z,100060.10
2018-03-28T15:27:09.454Z,100041.12
2018-03-28T15:29:38.834Z,100038.35
2018-03-28T15:32:07.735Z,100034.20
2018-03-28T15:34:36.270Z,100045.40
2018-03-28T15:37:04.813Z,100035.55
2018-03-28T15:39:33.911Z,100029.02
2018-03-28T15:42:03.825Z,100024.36
2018-03-28T15:44:32.956Z,100021.82
2018-03-28T15:47:01.532Z,100019.80
2018-03-28T15:49:30.006Z,100008.16
2018-03-28T15:51:58.320Z,100005.84
2018-03-28T15:54:27.138Z,99992.56
2018-03-28T15:56:55.656Z,99994.84
2018-03-28T15:59:24.321Z,99987.34
2018-03-28T16:01:52.813Z,99980.05
2018-03-28T16:04:21.132Z,99970.84
2018-03-28T16:06:49.741Z,99957.78
2018-03-28T16:09:18.171Z,99961.76
2018-03-28T16:11:46.734Z,99959.30
2018-03-28T16:14:15.430Z,99944.81
2018-03-28T16:16:44.014Z,99942.23
2018-03-28T16:19:13.242Z,99943.54
2018-03-28T16:21:42.337Z,99944.57
2018-03-28T16:24:10.685Z,99928.70
2018-03-28T16:26:39.095Z,99935.80
2018-03-28T16:29:07.542Z,99934.92
2018-03-28T16:31:35.880Z,99933.65
2018-03-28T16:34:05.007Z,99950.41
2018-03-28T16:36:34.094Z,99926.50
2018-03-28T16:39:02.664Z,99919.88
2018-03-28T16:41:31.022Z,99919.65
2018-03-28T16:43:59.337Z,99916.12
2018-03-28T16:46:27.918Z,99917.84
2018-03-28T16:48:56.225Z,99913.07
2018-03-28T16:51:24.577Z,99904.20
2018-03-28T16:53:52.934Z,99916.34
2018-03-28T16:56:21.231Z,99907.52
2018-03-28T16:58:50.726Z,99895.72
2018-03-28T17:01:19.360Z,99901.06
2018-03-28T17:03:47.774Z,99887.26
2018-03-28T17:06:16.208Z,99885.78
2018-03-28T17:08:44.713Z,99881.81
2018-03-28T17:11:13.023Z,99874.84
2018-03-28T17:13:41.363Z,99875.95
2018-03-28T17:16:09.760Z,99880.80
2018-03-28T17:18:38.230Z,99876.59
2018-03-28T17:21:06.562Z,99886.39
2018-03-28T17:23:35.198Z,99881.52
2018-03-28T17:26:04.096Z,99885.88
2018-03-28T17:28:32.497Z,99878.42
2018-03-28T17:31:00.879Z,99883.02
2018-03-28T17:33:29.234Z,99876.11
2018-03-28T17:35:57.779Z,99884.05
2018-03-28T17:38:26.137Z,99873.19
2018-03-28T17:40:54.444Z,99875.16
2018-03-28T17:43:22.745Z,99870.55
2018-03-28T17:45:51.522Z,99864.05
2018-03-28T17:48:19.899Z,99868.70
2018-03-28T17:50:48.221Z,99852.12
2018-03-28T17:53:16.589Z,99859.34
2018-03-28T17:55:44.908Z,99862.47
2018-03-28T17:58:14.000Z,99857.20
2018-03-28T18:00:43.098Z,99858.88
2018-03-28T18:03:12.225Z,99863.04
2018-03-28T18:05:40.692Z,99859.24
2018-03-28T18:08:10.300Z,99863.48
2018-03-28T18:10:39.418Z,99857.63
2018-03-28T18:13:07.876Z,99863.47
2018-03-28T18:15:36.382Z,99860.88
2018-03-28T18:18:04.695Z,99855.16
2018-03-28T18:20:33.310Z,99860.84
2018-03-28T18:23:01.848Z,99858.54
2018-03-28T18:25:30.191Z,99849.16
2018-03-28T18:27:58.725Z,99844.03
2018-03-28T18:30:27.655Z,99832.34
2018-03-28T18:32:56.074Z,99835.37
2018-03-28T18:35:28.713Z,99832.63
2018-03-28T18:37:57.205Z,99828.55
2018-03-28T18:40:25.633Z,99825.59
2018-03-28T18:42:54.023Z,99829.68
2018-03-28T18:45:22.394Z,99827.50
2018-03-28T18:47:50.932Z,99818.69
2018-03-28T18:50:19.606Z,99822.78
2018-03-28T18:52:47.950Z,99817.42
2018-03-28T18:55:16.293Z,99816.09
2018-03-28T18:57:44.638Z,99816.50
2018-03-28T19:00:16.044Z,99807.34
2018-03-28T19:02:47.963Z,99801.48
2018-03-28T19:05:16.857Z,99791.56
2018-03-28T19:07:45.188Z,99792.29
2018-03-28T19:10:13.712Z,99789.05
2018-03-28T19:12:42.855Z,99773.30
2018-03-28T19:15:11.176Z,99773.78
2018-03-28T19:17:40.299Z,99776.45
2018-03-28T19:20:08.676Z,99765.67
2018-03-28T19:22:36.985Z,99764.59
2018-03-28T19:25:05.356Z,99759.22
2018-03-28T19:27:34.066Z,99757.20
2018-03-28T19:30:02.369Z,99757.61
2018-03-28T19:32:32.085Z,99749.32
2018-03-28T19:35:01.237Z,99748.95
2018-03-28T19:37:29.580Z,99743.32
2018-03-28T19:39:58.235Z,99743.16
2018-03-28T19:42:26.779Z,99748.45
2018-03-28T19:44:55.128Z,99729.88
2018-03-28T19:47:24.263Z,99724.16
2018-03-28T19:49:52.583Z,99706.38
2018-03-28T19:52:20.869Z,99709.52
2018-03-28T19:54:49.949Z,99696.04
2018-03-28T19:57:20.081Z,99690.73
2018-03-28T19:59:49.216Z,99688.91
2018-03-28T20:02:17.570Z,99679.03
2018-03-28T20:04:45.932Z,99679.16
2018-03-28T20:07:14.248Z,99675.27
2018-03-28T20:09:42.949Z,99660.97
2018-03-28T20:12:11.276Z,99659.99
2018-03-28T20:14:40.392Z,99654.97
2018-03-28T20:17:08.944Z,99648.73
2018-03-28T20:19:37.308Z,99651.99
2018-03-28T20:22:05.737Z,99648.53
2018-03-28T20:24:34.259Z,99650.88
2018-03-28T20:27:02.703Z,99645.51
2018-03-28T20:29:31.366Z,99645.27
2018-03-28T20:31:59.731Z,99636.47
2018-03-28T20:34:28.353Z,99631.17
2018-03-28T20:36:56.798Z,99619.05
2018-03-28T20:39:25.308Z,99620.09
2018-03-28T20:41:53.647Z,99610.81
2018-03-28T20:44:21.959Z,99613.61
2018-03-28T20:46:51.066Z,99600.23
2018-03-28T20:49:19.401Z,99604.48
2018-03-28T20:51:47.733Z,99605.88
2018-03-28T20:54:16.093Z,99590.56
2018-03-28T20:56:44.441Z,99589.84
2018-03-28T20:59:14.276Z,99583.47
2018-03-28T21:01:44.098Z,99582.66
2018-03-28T21:04:12.476Z,99577.60
2018-03-28T21:06:41.679Z,99572.03
2018-03-28T21:09:10.785Z,99558.37
2018-03-28T21:11:39.410Z,99557.16
2018-03-28T21:14:08.740Z,99548.30
2018-03-28T21:16:37.134Z,99533.42
2018-03-28T21:19:06.583Z,99524.99
2018-03-28T21:21:34.927Z,99521.55
2018-03-28T21:24:03.933Z,99505.23
2018-03-28T21:26:32.298Z,99491.06
2018-03-28T21:29:00.610Z,99497.05
2018-03-28T21:31:33.608Z,99506.08
2018-03-28T21:34:01.956Z,99498.30
2018-03-28T21:36:31.776Z,99493.00
2018-03-28T21:39:00.349Z,99493.87
2018-03-28T21:41:30.324Z,99505.14
2018-03-28T21:43:58.656Z,99508.03
2018-03-28T21:46:27.908Z,99506.88
2018-03-28T21:48:56.212Z,99517.77
2018-03-28T21:51:27.579Z,99506.05
2018-03-28T21:53:56.344Z,99496.81
2018-03-28T21:56:24.828Z,99494.45
2018-03-28T21:58:53.121Z,99477.16
2018-03-28T22:01:21.462Z,99473.55
2018-03-28T22:03:49.807Z,99465.36
2018-03-28T22:06:18.118Z,99464.02
2018-03-28T22:08:46.699Z,99471.03
2018-03-28T22:11:15.125Z,99465.16
2018-03-28T22:13:43.522Z,99454.41
2018-03-28T22:16:12.194Z,99449.41
2018-03-28T22:18:40.513Z,99443.47
2018-03-28T22:21:10.642Z,99444.28
2018-03-28T22:23:38.960Z,99448.80
2018-03-28T22:26:07.277Z,99443.77
2018-03-28T22:28:35.575Z,99440.94
2018-03-28T22:31:05.100Z,99430.95
2018-03-28T22:33:34.150Z,99438.65
2018-03-28T22:36:02.471Z,99433.92
2018-03-28T22:38:31.723Z,99430.67
2018-03-28T22:41:00.223Z,99423.77
2018-03-28T22:43:28.512Z,99415.47
2018-03-28T22:45:56.946Z,99425.69
2018-03-28T22:48:25.339Z,99416.97
2018-03-28T22:50:53.893Z,99411.04
2018-03-28T22:53:22.282Z,99406.14
2018-03-28T22:55:50.850Z,99408.33
2018-03-28T22:58:20.045Z,99402.20
2018-03-28T23:00:49.199Z,99403.88
2018-03-28T23:03:17.553Z,99402.38
2018-03-28T23:05:46.000Z,99401.09
2018-03-28T23:08:15.121Z,99393.08
2018-03-28T23:10:45.418Z,99400.28
2018-03-28T23:13:14.702Z,99394.18
2018-03-28T23:15:43.116Z,99393.94
2018-03-28T23:18:11.884Z,99397.42
2018-03-28T23:20:40.368Z,99397.61
2018-03-28T23:23:08.707Z,99396.64
2018-03-28T23:25:37.032Z,99397.85
2018-03-28T23:28:06.254Z,99394.13
2018-03-28T23:30:34.772Z,99402.97
2018-03-28T23:33:03.987Z,99400.16
2018-03-28T23:35:33.271Z,99399.37
2018-03-28T23:38:01.694Z,99398.71
2018-03-28T23:40:30.763Z,99404.74
2018-03-28T23:42:59.078Z,99407.52
2018-03-28T23:45:27.438Z,99407.00
2018-03-28T23:47:55.768Z,99409.19
2018-03-28T23:50:24.077Z,99411.45
2018-03-28T23:52:52.410Z,99418.79
2018-03-28T23:55:20.726Z,99407.88
2018-03-28T23:57:49.214Z,99411.92
